createdAt,value
2018-06-02T00:00:55.553Z,127.90
2018-06-02T00:01:59.718Z,118.57
2018-06-02T00:03:04.622Z,118.00
2018-06-02T00:04:08.803Z,121.40
2018-06-02T00:05:12.938Z,122.13
2018-06-02T00:06:17.074Z,124.47
2018-06-02T00:07:22.006Z,120.80
2018-06-02T00:08:26.371Z,114.03
2018-06-02T00:09:30.534Z,121.47
2018-06-02T00:10:35.437Z,131.07
2018-06-02T00:11:40.351Z,120.57
2018-06-02T00:12:45.994Z,119.83
2018-06-02T00:13:51.702Z,115.03
2018-06-02T00:14:55.847Z,110.63
2018-06-02T00:15:59.986Z,115.67
2018-06-02T00:17:04.912Z,123.90
2018-06-02T00:18:09.815Z,121.43
2018-06-02T00:19:15.646Z,120.30
2018-06-02T00:20:20.566Z,117.23
2018-06-02T00:21:24.728Z,115.00
2018-06-02T00:22:29.634Z,125.47
2018-06-02T00:23:33.764Z,118.50
2018-06-02T00:24:38.859Z,123.33
2018-06-02T00:25:42.993Z,130.57
2018-06-02T00:26:47.919Z,125.07
2018-06-02T00:27:52.832Z,129.27
2018-06-02T00:28:58.473Z,129.77
2018-06-02T00:30:02.662Z,138.80
2018-06-02T00:31:06.793Z,139.03
2018-06-02T00:32:11.698Z,140.03
2018-06-02T00:33:15.833Z,145.60
2018-06-02T00:34:19.970Z,134.60
2018-06-02T00:35:24.899Z,124.47
2018-06-02T00:36:29.810Z,139.60
2018-06-02T00:37:33.948Z,137.90
2018-06-02T00:38:38.099Z,126.70
2018-06-02T00:39:42.266Z,137.27
2018-06-02T00:40:46.502Z,136.10
2018-06-02T00:41:50.652Z,145.67
2018-06-02T00:42:54.800Z,126.00
2018-06-02T00:43:59.154Z,130.03
2018-06-02T00:45:03.297Z,129.00
2018-06-02T00:46:08.207Z,142.20
2018-06-02T00:47:12.342Z,131.17
2018-06-02T00:48:17.241Z,118.83
2018-06-02T00:49:21.505Z,124.83
2018-06-02T00:50:25.645Z,124.13
2018-06-02T00:51:29.790Z,136.33
2018-06-02T00:52:34.699Z,128.60
2018-06-02T00:53:40.381Z,133.17
2018-06-02T00:55:02.037Z,132.57
2018-06-02T00:56:06.177Z,120.97
2018-06-02T00:57:10.318Z,109.73
2018-06-02T00:58:14.458Z,114.17
2018-06-02T00:59:18.593Z,119.17
2018-06-02T01:00:22.752Z,126.07
2018-06-02T01:01:26.934Z,129.83
2018-06-02T01:02:31.069Z,108.33
2018-06-02T01:03:35.210Z,117.20
2018-06-02T01:04:39.467Z,117.57
2018-06-02T01:05:44.399Z,125.90
2018-06-02T01:06:49.307Z,123.97
2018-06-02T01:07:53.469Z,107.00
2018-06-02T01:08:57.601Z,116.67
2018-06-02T01:10:01.737Z,114.40
2018-06-02T01:11:05.882Z,117.37
2018-06-02T01:12:10.026Z,115.40
2018-06-02T01:13:14.658Z,113.97
2018-06-02T01:14:18.793Z,110.73
2018-06-02T01:15:23.711Z,121.10
2018-06-02T01:16:29.370Z,116.87
2018-06-02T01:17:34.292Z,120.67
2018-06-02T01:18:38.571Z,117.53
2018-06-02T01:19:42.723Z,121.43
2018-06-02T01:20:47.656Z,133.73
2018-06-02T01:21:51.773Z,126.47
2018-06-02T01:22:55.915Z,130.17
2018-06-02T01:24:00.237Z,128.20
2018-06-02T01:25:04.384Z,130.50
2018-06-02T01:26:09.287Z,152.50
2018-06-02T01:27:13.430Z,145.67
2018-06-02T01:28:18.339Z,136.13
2018-06-02T01:29:22.494Z,134.80
2018-06-02T01:30:26.629Z,156.10
2018-06-02T01:31:30.800Z,133.27
2018-06-02T01:32:34.942Z,135.43
2018-06-02T01:33:39.078Z,137.63
2018-06-02T01:34:45.242Z,147.53
2018-06-02T01:35:49.412Z,143.37
2018-06-02T01:36:53.559Z,152.80
2018-06-02T01:37:57.698Z,133.03
2018-06-02T01:39:01.843Z,153.63
2018-06-02T01:40:05.973Z,140.73
2018-06-02T01:41:11.642Z,138.93
2018-06-02T01:42:16.603Z,145.40
2018-06-02T01:43:20.742Z,142.07
2018-06-02T01:44:24.869Z,135.13
2018-06-02T01:45:29.021Z,137.90
2018-06-02T01:46:33.163Z,135.10
2018-06-02T01:47:38.655Z,140.33
2018-06-02T01:48:42.785Z,131.47
2018-06-02T01:49:46.935Z,126.70
2018-06-02T01:50:51.080Z,138.10
2018-06-02T01:51:55.986Z,128.60
2018-06-02T01:53:00.277Z,124.33
2018-06-02T01:54:04.415Z,130.83
2018-06-02T01:55:08.559Z,127.87
2018-06-02T01:56:12.707Z,144.13
2018-06-02T01:57:16.841Z,142.10
2018-06-02T01:58:21.001Z,143.93
2018-06-02T01:59:25.163Z,132.60
2018-06-02T02:00:30.089Z,123.60
2018-06-02T02:01:34.233Z,119.90
2018-06-02T02:02:38.373Z,120.70
2018-06-02T02:03:42.530Z,124.70
2018-06-02T02:04:47.429Z,121.47
2018-06-02T02:05:51.567Z,141.10
2018-06-02T02:06:56.502Z,140.27
2018-06-02T02:08:00.652Z,126.60
2018-06-02T02:09:05.702Z,137.23
2018-06-02T02:10:09.848Z,119.37
2018-06-02T02:11:14.758Z,138.07
2018-06-02T02:12:19.675Z,122.07
2018-06-02T02:13:23.830Z,130.23
2018-06-02T02:14:27.990Z,135.00
2018-06-02T02:15:32.125Z,123.90
2018-06-02T02:16:37.047Z,136.13
2018-06-02T02:17:41.950Z,133.17
2018-06-02T02:18:47.594Z,131.10
2018-06-02T02:19:52.238Z,133.33
2018-06-02T02:20:57.134Z,132.50
2018-06-02T02:22:01.270Z,132.03
2018-06-02T02:23:06.173Z,123.30
2018-06-02T02:24:10.461Z,123.17
2018-06-02T02:25:14.591Z,123.57
2018-06-02T02:26:18.906Z,106.03
2018-06-02T02:27:23.044Z,122.40
2018-06-02T02:28:27.957Z,127.80
2018-06-02T02:29:33.593Z,138.03
2018-06-02T02:30:39.237Z,114.10
2018-06-02T02:31:45.093Z,116.00
2018-06-02T02:32:50.853Z,127.17
2018-06-02T02:33:55.764Z,131.80
2018-06-02T02:35:00.682Z,117.37
2018-06-02T02:36:04.826Z,120.67
2018-06-02T02:37:10.126Z,113.03
2018-06-02T02:38:14.269Z,120.67
2018-06-02T02:39:19.183Z,125.97
2018-06-02T02:40:24.086Z,116.03
2018-06-02T02:41:28.230Z,112.30
2018-06-02T02:42:33.324Z,114.33
2018-06-02T02:43:37.454Z,111.97
2018-06-02T02:44:41.605Z,109.03
2018-06-02T02:45:45.745Z,112.40
2018-06-02T02:46:49.874Z,98.30
2018-06-02T02:47:54.066Z,112.57
2018-06-02T02:48:58.287Z,109.77
2018-06-02T02:50:02.425Z,116.20
2018-06-02T02:51:07.317Z,104.97
2018-06-02T02:52:11.454Z,103.20
2018-06-02T02:53:16.370Z,103.33
2018-06-02T02:54:20.547Z,116.40
2018-06-02T02:55:24.685Z,125.17
2018-06-02T02:56:28.831Z,111.07
2018-06-02T02:57:32.975Z,115.77
2018-06-02T02:58:37.119Z,118.97
2018-06-02T02:59:42.782Z,109.73
2018-06-02T03:00:47.694Z,109.93
2018-06-02T03:01:51.833Z,111.63
2018-06-02T03:02:55.978Z,111.00
2018-06-02T03:04:00.134Z,109.97
2018-06-02T03:05:05.062Z,105.53
2018-06-02T03:06:10.010Z,105.10
2018-06-02T03:07:14.154Z,108.03
2018-06-02T03:08:18.289Z,107.07
2018-06-02T03:09:23.206Z,112.87
2018-06-02T03:10:27.346Z,121.93
2018-06-02T03:11:32.290Z,123.97
2018-06-02T03:12:36.458Z,108.87
2018-06-02T03:13:40.604Z,114.57
2018-06-02T03:14:45.511Z,121.37
2018-06-02T03:15:49.641Z,119.17
2018-06-02T03:16:53.815Z,124.23
2018-06-02T03:17:57.955Z,119.17
2018-06-02T03:19:03.250Z,120.50
2018-06-02T03:20:07.383Z,114.90
2018-06-02T03:21:11.532Z,118.17
2018-06-02T03:22:15.670Z,106.77
2018-06-02T03:23:19.818Z,117.43
2018-06-02T03:24:24.732Z,122.43
2018-06-02T03:25:28.879Z,132.63
2018-06-02T03:26:33.014Z,112.87
2018-06-02T03:27:37.155Z,105.77
2018-06-02T03:28:42.797Z,127.07
2018-06-02T03:29:48.497Z,128.03
2018-06-02T03:30:52.649Z,119.17
2018-06-02T03:31:56.794Z,114.53
2018-06-02T03:33:01.700Z,123.13
2018-06-02T03:34:05.837Z,118.10
2018-06-02T03:35:10.029Z,111.77
2018-06-02T03:36:14.938Z,115.20
2018-06-02T03:37:20.582Z,127.13
2018-06-02T03:38:24.721Z,111.47
2018-06-02T03:39:28.857Z,107.17
2018-06-02T03:40:33.114Z,112.33
2018-06-02T03:41:38.017Z,122.43
2018-06-02T03:42:42.242Z,121.50
2018-06-02T03:43:47.160Z,117.30
2018-06-02T03:44:51.294Z,115.47
2018-06-02T03:45:55.490Z,122.53
2018-06-02T03:46:59.620Z,110.97
2018-06-02T03:48:04.526Z,107.90
2018-06-02T03:49:10.174Z,119.57
2018-06-02T03:50:15.977Z,111.60
2018-06-02T03:51:20.147Z,126.80
2018-06-02T03:52:24.304Z,115.47
2018-06-02T03:53:28.466Z,120.07
2018-06-02T03:54:32.593Z,113.97
2018-06-02T03:55:36.733Z,101.77
2018-06-02T03:56:40.893Z,108.53
2018-06-02T03:57:45.796Z,88.90
2018-06-02T03:58:49.951Z,103.23
2018-06-02T03:59:54.099Z,103.20
2018-06-02T04:00:58.634Z,108.50
2018-06-02T04:02:02.785Z,109.40
2018-06-02T04:03:06.937Z,121.90
2018-06-02T04:04:11.066Z,99.07
2018-06-02T04:05:16.714Z,114.03
2018-06-02T04:06:20.870Z,104.73
2018-06-02T04:07:25.029Z,102.53
2018-06-02T04:08:29.511Z,100.07
2018-06-02T04:09:33.649Z,102.80
2018-06-02T04:10:37.786Z,108.40
2018-06-02T04:11:42.716Z,115.73
2018-06-02T04:12:47.614Z,102.10
2018-06-02T04:13:51.779Z,105.60
2018-06-02T04:14:55.941Z,113.67
2018-06-02T04:16:00.084Z,112.23
2018-06-02T04:17:04.249Z,124.93
2018-06-02T04:18:08.563Z,115.63
2018-06-02T04:19:12.715Z,123.03
2018-06-02T04:20:16.853Z,120.60
2018-06-02T04:21:20.991Z,121.13
2018-06-02T04:22:25.137Z,123.50
2018-06-02T04:23:30.225Z,120.00
2018-06-02T04:24:34.388Z,118.33
2018-06-02T04:25:38.522Z,112.33
2018-06-02T04:26:42.670Z,117.57
2018-06-02T04:27:47.573Z,131.53
2018-06-02T04:28:51.753Z,115.70
2018-06-02T04:29:55.909Z,128.07
2018-06-02T04:31:00.244Z,110.87
2018-06-02T04:32:04.373Z,124.37
2018-06-02T04:33:08.510Z,132.57
2018-06-02T04:34:12.737Z,127.73
2018-06-02T04:35:16.935Z,121.10
2018-06-02T04:36:21.078Z,134.03
2018-06-02T04:37:25.218Z,129.53
2018-06-02T04:38:30.113Z,130.97
2018-06-02T04:39:34.260Z,112.43
2018-06-02T04:40:38.437Z,135.27
2018-06-02T04:41:42.578Z,140.27
2018-06-02T04:42:46.866Z,132.93
2018-06-02T04:43:50.993Z,135.07
2018-06-02T04:44:55.898Z,151.90
2018-06-02T04:46:00.158Z,140.80
2018-06-02T04:47:04.307Z,132.77
2018-06-02T04:48:08.450Z,124.63
2018-06-02T04:49:13.355Z,140.27
2018-06-02T04:50:17.571Z,135.77
2018-06-02T04:51:21.760Z,133.87
2018-06-02T04:52:25.923Z,132.60
2018-06-02T04:53:30.060Z,127.37
2018-06-02T04:54:34.205Z,157.73
2018-06-02T04:55:38.338Z,132.23
2018-06-02T04:56:43.006Z,133.97
2018-06-02T04:57:47.151Z,137.23
2018-06-02T04:58:52.057Z,141.37
2018-06-02T04:59:56.198Z,131.47
2018-06-02T05:01:01.101Z,140.20
2018-06-02T05:02:05.265Z,161.70
2018-06-02T05:03:09.406Z,123.20
2018-06-02T05:04:13.542Z,139.53
2018-06-02T05:05:18.441Z,137.70
2018-06-02T05:06:22.577Z,133.40
2018-06-02T05:07:27.537Z,146.90
2018-06-02T05:08:31.669Z,133.20
2018-06-02T05:09:35.814Z,128.97
2018-06-02T05:10:39.953Z,138.83
2018-06-02T05:11:44.090Z,119.47
2018-06-02T05:12:48.430Z,140.57
2018-06-02T05:13:54.078Z,139.20
2018-06-02T05:14:58.221Z,137.63
2018-06-02T05:16:03.126Z,126.00
2018-06-02T05:17:07.281Z,143.63
2018-06-02T05:18:11.937Z,117.70
2018-06-02T05:19:16.073Z,153.90
2018-06-02T05:20:20.978Z,133.77
2018-06-02T05:21:25.111Z,130.90
2018-06-02T05:22:29.270Z,145.73
2018-06-02T05:23:33.908Z,119.57
2018-06-02T05:24:38.048Z,121.87
2018-06-02T05:25:42.961Z,134.93
2018-06-02T05:26:47.090Z,129.20
2018-06-02T05:27:51.994Z,133.23
2018-06-02T05:28:57.691Z,130.47
2018-06-02T05:30:01.835Z,131.63
2018-06-02T05:31:05.979Z,120.57
2018-06-02T05:32:10.890Z,133.90
2018-06-02T05:33:16.533Z,130.00
2018-06-02T05:34:20.695Z,131.20
2018-06-02T05:35:24.905Z,134.13
2018-06-02T05:36:29.822Z,145.60
2018-06-02T05:37:33.960Z,130.13
2018-06-02T05:38:38.093Z,141.53
2018-06-02T05:39:43.748Z,141.07
2018-06-02T05:40:49.394Z,134.53
2018-06-02T05:41:53.895Z,151.83
2018-06-02T05:42:58.046Z,132.13
2018-06-02T05:44:03.166Z,138.47
2018-06-02T05:45:08.086Z,155.27
2018-06-02T05:46:12.221Z,136.47
2018-06-02T05:47:16.596Z,121.63
2018-06-02T05:48:20.738Z,152.27
2018-06-02T05:49:25.657Z,136.50
2018-06-02T05:50:30.557Z,138.97
2018-06-02T05:51:34.698Z,142.80
2018-06-02T05:52:38.854Z,145.87
2018-06-02T05:53:43.009Z,146.27
2018-06-02T05:54:47.909Z,136.50
2018-06-02T05:55:52.811Z,132.70
2018-06-02T05:56:56.953Z,151.63
2018-06-02T05:58:01.156Z,153.50
2018-06-02T05:59:05.289Z,161.10
2018-06-02T06:00:10.213Z,147.43
2018-06-02T06:01:14.342Z,137.27
2018-06-02T06:02:18.482Z,158.60
2018-06-02T06:03:23.018Z,152.43
2018-06-02T06:04:27.162Z,145.43
2018-06-02T06:05:32.061Z,145.17
2018-06-02T06:06:36.205Z,140.23
2018-06-02T06:07:41.115Z,133.87
2018-06-02T06:08:45.330Z,148.17
2018-06-02T06:09:50.239Z,134.67
2018-06-02T06:10:54.373Z,144.00
2018-06-02T06:11:59.277Z,156.70
2018-06-02T06:13:03.413Z,160.47
2018-06-02T06:14:08.337Z,145.20
2018-06-02T06:15:13.286Z,145.27
2018-06-02T06:16:17.417Z,151.77
2018-06-02T06:17:21.570Z,158.70
2018-06-02T06:18:25.713Z,162.17
2018-06-02T06:19:29.859Z,166.40
2018-06-02T06:20:34.041Z,170.83
2018-06-02T06:21:38.166Z,156.67
2018-06-02T06:22:42.323Z,155.70
2018-06-02T06:23:47.254Z,158.03
2018-06-02T06:24:52.145Z,161.03
2018-06-02T06:25:56.286Z,137.47
2018-06-02T06:27:01.189Z,147.27
2018-06-02T06:28:05.336Z,149.57
2018-06-02T06:29:10.240Z,153.10
2018-06-02T06:30:14.395Z,128.13
2018-06-02T06:31:18.558Z,156.00
2018-06-02T06:32:22.702Z,175.87
2018-06-02T06:33:26.950Z,143.27
2018-06-02T06:34:31.434Z,148.40
2018-06-02T06:35:35.575Z,133.83
2018-06-02T06:36:39.734Z,155.40
2018-06-02T06:37:44.651Z,145.87
2018-06-02T06:38:49.609Z,150.93
2018-06-02T06:39:53.746Z,150.37
2018-06-02T06:40:57.900Z,157.57
2018-06-02T06:42:02.802Z,141.97
2018-06-02T06:43:07.017Z,167.93
2018-06-02T06:44:13.035Z,141.67
2018-06-02T06:45:17.210Z,144.90
2018-06-02T06:46:22.123Z,142.67
2018-06-02T06:47:26.366Z,144.33
2018-06-02T06:48:30.501Z,137.37
2018-06-02T06:49:34.841Z,151.13
2018-06-02T06:50:39.830Z,150.50
2018-06-02T06:51:43.948Z,146.07
2018-06-02T06:52:48.090Z,157.50
2018-06-02T06:53:53.752Z,166.43
2018-06-02T06:54:57.943Z,148.20
2018-06-02T06:56:03.589Z,157.37
2018-06-02T06:57:07.734Z,162.40
2018-06-02T06:58:11.895Z,160.63
2018-06-02T06:59:16.066Z,151.57
2018-06-02T07:00:20.218Z,152.03
2018-06-02T07:01:24.459Z,153.73
2018-06-02T07:02:29.370Z,156.60
2018-06-02T07:03:33.503Z,162.03
2018-06-02T07:04:38.415Z,155.30
2018-06-02T07:05:43.775Z,151.83
2018-06-02T07:06:48.687Z,168.53
2018-06-02T07:07:53.589Z,150.53
2018-06-02T07:08:59.300Z,149.07
2018-06-02T07:10:04.169Z,156.90
2018-06-02T07:11:08.329Z,167.80
2018-06-02T07:12:12.462Z,156.70
2018-06-02T07:13:16.609Z,174.43
2018-06-02T07:14:21.530Z,158.37
2018-06-02T07:15:25.696Z,166.53
2018-06-02T07:16:29.856Z,162.53
2018-06-02T07:17:34.749Z,169.77
2018-06-02T07:18:38.918Z,153.47
2018-06-02T07:19:43.062Z,154.80
2018-06-02T07:20:47.202Z,146.20
2018-06-02T07:21:51.495Z,164.60
2018-06-02T07:22:55.656Z,151.13
2018-06-02T07:23:59.794Z,144.30
2018-06-02T07:25:03.940Z,153.80
2018-06-02T07:26:08.162Z,162.47
2018-06-02T07:27:12.315Z,162.10
2018-06-02T07:28:16.453Z,140.27
2018-06-02T07:29:20.586Z,161.30
2018-06-02T07:30:25.516Z,144.77
2018-06-02T07:31:30.440Z,125.70
2018-06-02T07:32:34.574Z,117.27
2018-06-02T07:33:38.708Z,139.20
2018-06-02T07:34:42.841Z,113.40
2018-06-02T07:35:47.051Z,124.13
2018-06-02T07:36:51.195Z,112.60
2018-06-02T07:37:56.101Z,114.87
2018-06-02T07:39:00.237Z,113.70
2018-06-02T07:40:05.139Z,107.60
2018-06-02T07:41:10.971Z,105.40
2018-06-02T07:42:15.111Z,99.50
2018-06-02T07:43:20.024Z,108.90
2018-06-02T07:44:25.677Z,102.50
2018-06-02T07:45:29.842Z,97.73
2018-06-02T07:46:34.523Z,90.57
2018-06-02T07:47:39.427Z,104.17
2018-06-02T07:48:44.325Z,101.43
2018-06-02T07:49:48.558Z,83.03
2018-06-02T07:50:53.387Z,106.27
2018-06-02T07:51:59.424Z,92.37
2018-06-02T07:53:03.570Z,102.07
2018-06-02T07:54:08.495Z,99.20
2018-06-02T07:55:13.416Z,85.97
2018-06-02T07:56:17.634Z,82.83
2018-06-02T07:57:22.729Z,76.23
2018-06-02T07:58:26.866Z,82.67
2018-06-02T07:59:31.011Z,85.13
2018-06-02T08:00:35.146Z,98.27
2018-06-02T08:01:39.314Z,80.03
2018-06-02T08:02:44.407Z,82.10
2018-06-02T08:03:48.543Z,72.57
2018-06-02T08:04:53.449Z,79.27
2018-06-02T08:05:58.360Z,72.13
2018-06-02T08:07:02.519Z,76.50
2018-06-02T08:08:07.610Z,80.57
2018-06-02T08:09:11.741Z,72.97
2018-06-02T08:10:16.657Z,63.33
2018-06-02T08:11:21.602Z,61.00
2018-06-02T08:12:25.761Z,53.30
2018-06-02T08:13:29.929Z,56.67
2018-06-02T08:14:34.822Z,54.00
2018-06-02T08:15:38.982Z,45.87
2018-06-02T08:16:45.449Z,45.50
2018-06-02T08:17:49.788Z,48.40
2018-06-02T08:18:53.923Z,53.13
2018-06-02T08:19:58.094Z,49.13
2018-06-02T08:21:02.272Z,44.27
2018-06-02T08:22:07.195Z,44.17
2018-06-02T08:23:12.109Z,40.17
2018-06-02T08:24:16.243Z,39.67
2018-06-02T08:25:20.371Z,41.20
2018-06-02T08:26:24.508Z,37.83
2018-06-02T08:27:28.638Z,42.00
2018-06-02T08:28:32.797Z,37.20
2018-06-02T08:29:37.364Z,33.70
2018-06-02T08:30:41.503Z,32.50
2018-06-02T08:31:48.241Z,34.40
2018-06-02T08:32:52.435Z,31.53
2018-06-02T08:33:56.623Z,30.87
2018-06-02T08:35:00.778Z,24.87
2018-06-02T08:36:04.909Z,22.60
2018-06-02T08:37:09.815Z,21.13
2018-06-02T08:38:13.949Z,20.87
2018-06-02T08:39:18.865Z,24.07
2018-06-02T08:40:23.828Z,23.90
2018-06-02T08:41:27.953Z,20.17
2018-06-02T08:42:32.090Z,23.13
2018-06-02T08:43:36.230Z,21.53
2018-06-02T08:44:41.128Z,17.63
2018-06-02T08:45:45.301Z,24.93
2018-06-02T08:46:49.445Z,26.10
2018-06-02T08:47:54.015Z,26.10
2018-06-02T08:48:58.141Z,26.13
2018-06-02T08:50:02.277Z,23.80
2018-06-02T08:51:06.612Z,24.50
2018-06-02T08:52:10.737Z,28.73
2018-06-02T08:53:15.646Z,28.73
2018-06-02T08:54:19.831Z,29.37
2018-06-02T08:55:23.934Z,30.53
2018-06-02T08:56:28.090Z,32.60
2018-06-02T08:57:33.019Z,31.13
2018-06-02T08:58:37.977Z,35.97
2018-06-02T08:59:42.114Z,32.70
2018-06-02T09:00:46.247Z,35.43
2018-06-02T09:01:50.387Z,34.27
2018-06-02T09:02:54.523Z,34.47
2018-06-02T09:03:58.706Z,37.80
2018-06-02T09:05:02.847Z,40.90
2018-06-02T09:06:06.977Z,36.77
2018-06-02T09:07:11.127Z,37.90
2018-06-02T09:08:15.257Z,35.10
2018-06-02T09:09:19.409Z,42.60
2018-06-02T09:10:23.582Z,41.07
2018-06-02T09:11:27.751Z,36.87
2018-06-02T09:12:32.663Z,44.63
2018-06-02T09:13:36.802Z,40.90
2018-06-02T09:14:40.944Z,41.90
2018-06-02T09:15:45.069Z,43.50
2018-06-02T09:16:49.231Z,42.23
2018-06-02T09:17:53.365Z,43.40
2018-06-02T09:18:57.493Z,43.50
2018-06-02T09:20:01.621Z,42.40
2018-06-02T09:21:05.749Z,44.37
2018-06-02T09:22:09.936Z,38.27
2018-06-02T09:23:14.065Z,46.07
2018-06-02T09:24:19.017Z,40.10
2018-06-02T09:25:23.180Z,41.20
2018-06-02T09:26:27.316Z,43.63
2018-06-02T09:27:32.266Z,40.53
2018-06-02T09:28:36.389Z,37.93
2018-06-02T09:29:40.531Z,37.47
2018-06-02T09:30:44.661Z,47.03
2018-06-02T09:31:49.572Z,40.40
2018-06-02T09:32:55.358Z,39.87
2018-06-02T09:33:59.507Z,40.17
2018-06-02T09:35:03.655Z,45.50
2018-06-02T09:36:08.552Z,39.47
2018-06-02T09:37:12.694Z,43.27
2018-06-02T09:38:18.088Z,42.10
2018-06-02T09:39:22.222Z,43.23
2018-06-02T09:40:26.355Z,40.60
2018-06-02T09:41:31.252Z,41.33
2018-06-02T09:42:35.391Z,41.60
2018-06-02T09:43:40.307Z,43.83
2018-06-02T09:44:45.670Z,44.60
2018-06-02T09:45:49.766Z,45.30
2018-06-02T09:46:54.673Z,44.80
2018-06-02T09:47:58.819Z,43.43
2018-06-02T09:49:02.949Z,44.83
2018-06-02T09:50:07.298Z,45.73
2018-06-02T09:51:11.429Z,44.33
2018-06-02T09:52:16.346Z,53.50
2018-06-02T09:53:20.473Z,45.60
2018-06-02T09:54:25.406Z,47.27
2018-06-02T09:55:30.314Z,41.87
2018-06-02T09:56:35.228Z,52.87
2018-06-02T09:57:39.523Z,47.90
2018-06-02T09:58:43.657Z,49.60
2018-06-02T09:59:47.873Z,48.57
2018-06-02T10:00:52.019Z,42.33
2018-06-02T10:01:56.193Z,45.63
2018-06-02T10:03:00.781Z,49.07
2018-06-02T10:04:04.915Z,46.50
2018-06-02T10:05:09.050Z,47.47
2018-06-02T10:06:13.182Z,50.23
2018-06-02T10:07:17.330Z,50.23
2018-06-02T10:08:22.982Z,49.73
2018-06-02T10:09:27.297Z,51.03
2018-06-02T10:10:31.467Z,50.73
2018-06-02T10:11:35.574Z,50.83
2018-06-02T10:12:39.714Z,56.00
2018-06-02T10:13:43.859Z,49.17
2018-06-02T10:14:48.018Z,53.60
2018-06-02T10:15:52.194Z,46.30
2018-06-02T10:16:56.343Z,52.27
2018-06-02T10:18:00.477Z,50.30
2018-06-02T10:19:04.612Z,50.40
2018-06-02T10:20:08.750Z,56.00
2018-06-02T10:21:12.934Z,54.17
2018-06-02T10:22:17.081Z,48.40
2018-06-02T10:23:21.213Z,54.13
2018-06-02T10:24:25.382Z,52.47
2018-06-02T10:25:29.538Z,52.13
2018-06-02T10:26:33.685Z,49.10
2018-06-02T10:27:37.813Z,48.90
2018-06-02T10:28:41.969Z,50.50
2018-06-02T10:29:46.869Z,53.27
2018-06-02T10:30:52.535Z,55.87
2018-06-02T10:31:56.668Z,61.33
2018-06-02T10:33:00.806Z,57.10
2018-06-02T10:34:06.777Z,56.30
2018-06-02T10:35:10.927Z,53.10
2018-06-02T10:36:15.844Z,50.67
2018-06-02T10:37:19.981Z,58.90
2018-06-02T10:38:24.128Z,58.17
2018-06-02T10:39:28.442Z,65.17
2018-06-02T10:40:32.570Z,54.00
2018-06-02T10:41:38.205Z,57.50
2018-06-02T10:42:44.327Z,60.40
2018-06-02T10:43:48.602Z,60.57
2018-06-02T10:44:53.525Z,56.77
2018-06-02T10:45:57.653Z,57.43
2018-06-02T10:47:01.786Z,51.27
2018-06-02T10:48:05.917Z,58.20
2018-06-02T10:49:10.550Z,56.13
2018-06-02T10:50:14.682Z,54.90
2018-06-02T10:51:19.629Z,56.03
2018-06-02T10:52:23.737Z,52.37
2018-06-02T10:53:27.861Z,53.40
2018-06-02T10:54:32.046Z,51.83
2018-06-02T10:55:36.946Z,50.63
2018-06-02T10:56:42.609Z,56.10
2018-06-02T10:57:46.887Z,54.43
2018-06-02T10:58:51.018Z,62.17
2018-06-02T10:59:55.162Z,53.73
2018-06-02T11:00:59.350Z,59.30
2018-06-02T11:02:03.479Z,54.93
2018-06-02T11:03:07.653Z,52.77
2018-06-02T11:04:11.790Z,57.73
2018-06-02T11:05:16.690Z,57.20
2018-06-02T11:06:22.325Z,55.20
2018-06-02T11:07:26.490Z,56.43
2018-06-02T11:08:30.837Z,53.93
2018-06-02T11:09:34.973Z,57.10
2018-06-02T11:10:39.869Z,55.43
2018-06-02T11:11:44.017Z,53.83
2018-06-02T11:12:48.942Z,55.10
2018-06-02T11:13:53.529Z,52.27
2018-06-02T11:14:57.670Z,53.57
2018-06-02T11:16:01.812Z,54.23
2018-06-02T11:17:05.993Z,54.60
2018-06-02T11:18:10.900Z,58.73
2018-06-02T11:19:16.568Z,57.17
2018-06-02T11:20:21.461Z,54.00
2018-06-02T11:21:25.601Z,56.40
2018-06-02T11:22:31.008Z,53.03
2018-06-02T11:23:35.134Z,48.67
2018-06-02T11:24:39.275Z,61.77
2018-06-02T11:25:43.470Z,60.60
2018-06-02T11:26:47.555Z,59.33
2018-06-02T11:27:51.715Z,66.20
2018-06-02T11:28:55.868Z,57.87
2018-06-02T11:30:00.027Z,60.90
2018-06-02T11:31:04.165Z,56.00
2018-06-02T11:32:08.301Z,58.20
2018-06-02T11:33:13.969Z,53.67
2018-06-02T11:34:19.374Z,61.07
2018-06-02T11:35:23.525Z,53.60
2018-06-02T11:36:28.432Z,53.80
2018-06-02T11:37:32.566Z,60.57
2018-06-02T11:38:36.711Z,51.13
2018-06-02T11:39:40.889Z,54.97
2018-06-02T11:40:45.038Z,51.87
2018-06-02T11:41:49.173Z,55.43
2018-06-02T11:42:53.304Z,58.57
2018-06-02T11:43:58.209Z,52.97
2018-06-02T11:45:02.398Z,51.10
2018-06-02T11:46:06.630Z,58.67
2018-06-02T11:47:10.774Z,55.33
2018-06-02T11:48:14.913Z,57.30
2018-06-02T11:49:19.041Z,58.87
2018-06-02T11:50:23.194Z,60.33
2018-06-02T11:51:27.369Z,58.57
2018-06-02T11:52:31.505Z,59.60
2018-06-02T11:53:36.413Z,71.50
2018-06-02T11:54:40.549Z,60.70
2018-06-02T11:55:45.446Z,57.37
2018-06-02T11:56:49.733Z,57.53
2018-06-02T11:57:53.887Z,53.67
2018-06-02T11:58:58.793Z,59.67
2018-06-02T12:00:02.925Z,56.43
2018-06-02T12:01:07.833Z,58.90
2018-06-02T12:02:12.785Z,57.17
2018-06-02T12:03:17.743Z,55.67
2018-06-02T12:04:21.883Z,53.43
2018-06-02T12:05:26.027Z,59.13
2018-06-02T12:06:30.925Z,56.03
2018-06-02T12:07:35.082Z,59.17
2018-06-02T12:08:39.209Z,59.00
2018-06-02T12:09:43.349Z,58.13
2018-06-02T12:10:47.520Z,56.70
2018-06-02T12:11:52.589Z,52.10
2018-06-02T12:12:56.719Z,56.60
2018-06-02T12:14:00.897Z,51.93
2018-06-02T12:15:05.025Z,59.20
2018-06-02T12:16:09.305Z,55.00
2018-06-02T12:17:13.429Z,60.33
2018-06-02T12:18:18.186Z,62.57
2018-06-02T12:19:23.103Z,51.53
2018-06-02T12:20:27.232Z,55.10
2018-06-02T12:21:32.531Z,55.83
2018-06-02T12:22:36.667Z,58.63
2018-06-02T12:23:41.588Z,63.63
2018-06-02T12:24:45.731Z,65.23
2018-06-02T12:25:49.867Z,57.23
2018-06-02T12:26:54.043Z,56.00
2018-06-02T12:27:58.182Z,61.90
2018-06-02T12:29:02.326Z,52.90
2018-06-02T12:30:06.553Z,52.97
2018-06-02T12:31:10.712Z,59.03
2018-06-02T12:32:14.862Z,57.40
2018-06-02T12:33:18.999Z,59.43
2018-06-02T12:34:23.142Z,60.77
2018-06-02T12:35:27.287Z,59.53
2018-06-02T12:36:31.417Z,49.10
2018-06-02T12:37:36.506Z,59.33
2018-06-02T12:38:40.637Z,56.10
2018-06-02T12:39:44.774Z,58.77
2018-06-02T12:40:48.901Z,53.40
2018-06-02T12:41:53.049Z,51.37
2018-06-02T12:42:57.232Z,57.30
2018-06-02T12:44:01.357Z,50.57
2018-06-02T12:45:05.503Z,50.73
2018-06-02T12:46:10.393Z,56.30
2018-06-02T12:47:14.521Z,70.00
2018-06-02T12:48:18.690Z,53.90
2018-06-02T12:49:22.833Z,54.90
2018-06-02T12:50:26.973Z,56.50
2018-06-02T12:51:32.023Z,56.43
2018-06-02T12:52:36.161Z,55.07
2018-06-02T12:53:40.299Z,53.40
2018-06-02T12:54:44.449Z,65.30
2018-06-02T12:55:48.591Z,56.07
2018-06-02T12:56:53.218Z,53.63
2018-06-02T12:57:57.370Z,55.13
2018-06-02T12:59:02.265Z,51.63
2018-06-02T13:00:06.403Z,53.37
2018-06-02T13:01:11.301Z,52.70
2018-06-02T13:02:15.492Z,54.57
2018-06-02T13:03:19.625Z,57.47
2018-06-02T13:04:23.764Z,57.10
2018-06-02T13:05:28.673Z,49.17
2018-06-02T13:06:32.860Z,52.10
2018-06-02T13:07:37.486Z,50.97
2018-06-02T13:08:41.635Z,51.23
2018-06-02T13:09:46.533Z,51.87
2018-06-02T13:10:50.670Z,49.17
2018-06-02T13:11:55.569Z,52.87
2018-06-02T13:12:59.725Z,51.13
2018-06-02T13:14:03.903Z,43.37
2018-06-02T13:15:08.050Z,48.00
2018-06-02T13:16:12.194Z,46.43
2018-06-02T13:17:16.338Z,50.93
2018-06-02T13:18:21.298Z,49.03
2018-06-02T13:19:25.470Z,52.97
2018-06-02T13:20:30.669Z,48.40
2018-06-02T13:21:34.915Z,51.80
2018-06-02T13:22:39.054Z,47.60
2018-06-02T13:23:43.210Z,50.30
2018-06-02T13:24:47.998Z,47.70
2018-06-02T13:25:52.258Z,47.50
2018-06-02T13:26:56.481Z,50.80
2018-06-02T13:28:01.376Z,51.67
2018-06-02T13:29:05.538Z,55.37
2018-06-02T13:30:09.670Z,56.20
2018-06-02T13:31:13.822Z,53.50
2018-06-02T13:32:17.965Z,52.97
2018-06-02T13:33:22.113Z,50.10
2018-06-02T13:34:26.250Z,54.43
2018-06-02T13:35:30.391Z,48.53